sensor_id;sensor_type;location;lat;lon;timestamp;pressure;altitude;pressure_sealevel;temperature;humidity
48053;BME280;33824;51.600;5.718;2022-08-11T00:00:10;102049.50;;;20.76;51.98
48053;BME280;33824;51.600;5.718;2022-08-11T00:03:03;102046.19;;;20.68;52.12
48053;BME280;33824;51.600;5.718;2022-08-11T00:05:30;102043.03;;;20.71;52.05
48053;BME280;33824;51.600;5.718;2022-08-11T00:07:56;102042.44;;;20.69;52.29
48053;BME280;33824;51.600;5.718;2022-08-11T00:10:27;102041.41;;;20.63;52.47
48053;BME280;33824;51.600;5.718;2022-08-11T00:12:59;102035.78;;;20.65;52.29
48053;BME280;33824;51.600;5.718;2022-08-11T00:15:27;102038.28;;;20.59;52.44
48053;BME280;33824;51.600;5.718;2022-08-11T00:17:57;102041.00;;;20.53;52.50
48053;BME280;33824;51.600;5.718;2022-08-11T00:20:29;102038.72;;;20.50;52.73
48053;BME280;33824;51.600;5.718;2022-08-11T00:23:01;102042.47;;;20.49;52.83
48053;BME280;33824;51.600;5.718;2022-08-11T00:25:28;102036.41;;;20.53;52.68
48053;BME280;33824;51.600;5.718;2022-08-11T00:27:54;102047.25;;;20.53;52.77
48053;BME280;33824;51.600;5.718;2022-08-11T00:30:20;102044.13;;;20.50;52.73
48053;BME280;33824;51.600;5.718;2022-08-11T00:32:54;102039.97;;;20.41;52.85
48053;BME280;33824;51.600;5.718;2022-08-11T00:35:25;102047.25;;;20.40;52.99
48053;BME280;33824;51.600;5.718;2022-08-11T00:37:52;102043.72;;;20.40;53.21
48053;BME280;33824;51.600;5.718;2022-08-11T00:40:41;102046.00;;;20.23;53.31
48053;BME280;33824;51.600;5.718;2022-08-11T00:43:21;102044.31;;;20.22;53.33
48053;BME280;33824;51.600;5.718;2022-08-11T00:46:08;102038.69;;;20.17;53.43
48053;BME280;33824;51.600;5.718;2022-08-11T00:48:44;102044.75;;;20.19;53.63
48053;BME280;33824;51.600;5.718;2022-08-11T00:54:42;102041.59;;;20.02;53.45
48053;BME280;33824;51.600;5.718;2022-08-11T00:57:32;102038.06;;;20.02;53.60
48053;BME280;33824;51.600;5.718;2022-08-11T01:00:16;102042.22;;;19.98;53.93
48053;BME280;33824;51.600;5.718;2022-08-11T01:03:05;102035.13;;;19.90;53.93
48053;BME280;33824;51.600;5.718;2022-08-11T01:20:01;102028.28;;;19.81;54.56
48053;BME280;33824;51.600;5.718;2022-08-11T01:23:02;102036.97;;;19.63;54.68
48053;BME280;33824;51.600;5.718;2022-08-11T01:25:47;102043.44;;;19.62;55.02
48053;BME280;33824;51.600;5.718;2022-08-11T01:31:35;102042.97;;;19.52;54.95
48053;BME280;33824;51.600;5.718;2022-08-11T01:46:12;102050.16;;;19.32;55.55
48053;BME280;33824;51.600;5.718;2022-08-11T01:48:59;102050.16;;;19.32;55.58
48053;BME280;33824;51.600;5.718;2022-08-11T01:51:42;102049.69;;;19.22;55.95
48053;BME280;33824;51.600;5.718;2022-08-11T01:54:26;102034.28;;;19.16;56.14
48053;BME280;33824;51.600;5.718;2022-08-11T01:57:43;102042.41;;;19.23;56.11
48053;BME280;33824;51.600;5.718;2022-08-11T01:59:55;102050.91;;;19.13;56.25
48053;BME280;33824;51.600;5.718;2022-08-11T02:02:40;102051.13;;;19.18;56.12
48053;BME280;33824;51.600;5.718;2022-08-11T02:05:26;102039.44;;;19.11;56.40
48053;BME280;33824;51.600;5.718;2022-08-11T02:08:17;102044.16;;;18.96;56.57
48053;BME280;33824;51.600;5.718;2022-08-11T02:11:34;102043.16;;;19.03;56.58
48053;BME280;33824;51.600;5.718;2022-08-11T02:16:47;102048.88;;;18.87;56.86
48053;BME280;33824;51.600;5.718;2022-08-11T02:19:23;102045.59;;;18.92;56.92
48053;BME280;33824;51.600;5.718;2022-08-11T02:25:03;102053.91;;;18.90;56.93
48053;BME280;33824;51.600;5.718;2022-08-11T02:27:42;102045.31;;;18.80;56.95
48053;BME280;33824;51.600;5.718;2022-08-11T02:30:14;102041.84;;;18.86;57.12
48053;BME280;33824;51.600;5.718;2022-08-11T02:32:50;102049.88;;;18.80;57.22
48053;BME280;33824;51.600;5.718;2022-08-11T02:35:44;102045.72;;;18.77;57.32
48053;BME280;33824;51.600;5.718;2022-08-11T02:38:36;102047.75;;;18.68;57.62
48053;BME280;33824;51.600;5.718;2022-08-11T02:41:13;102046.72;;;18.69;57.46
48053;BME280;33824;51.600;5.718;2022-08-11T02:44:11;102041.03;;;18.58;57.82
48053;BME280;33824;51.600;5.718;2022-08-11T02:46:54;102040.41;;;18.56;57.77
48053;BME280;33824;51.600;5.718;2022-08-11T02:49:50;102038.66;;;18.48;58.22
48053;BME280;33824;51.600;5.718;2022-08-11T02:52:25;102038.72;;;18.55;58.14
48053;BME280;33824;51.600;5.718;2022-08-11T02:58:08;102032.41;;;18.48;58.31
48053;BME280;33824;51.600;5.718;2022-08-11T03:00:48;102035.88;;;18.42;58.46
48053;BME280;33824;51.600;5.718;2022-08-11T03:03:24;102039.81;;;18.39;58.53
48053;BME280;33824;51.600;5.718;2022-08-11T03:08:53;102037.53;;;18.36;58.64
48053;BME280;33824;51.600;5.718;2022-08-11T03:11:31;102036.63;;;18.29;59.06
48053;BME280;33824;51.600;5.718;2022-08-11T03:14:29;102038.75;;;18.34;59.26
48053;BME280;33824;51.600;5.718;2022-08-11T03:17:29;102036.97;;;18.19;59.29
48053;BME280;33824;51.600;5.718;2022-08-11T03:23:10;102033.63;;;18.17;59.46
48053;BME280;33824;51.600;5.718;2022-08-11T03:25:56;102046.69;;;18.14;59.59
48053;BME280;33824;51.600;5.718;2022-08-11T03:28:31;102044.63;;;18.16;59.50
48053;BME280;33824;51.600;5.718;2022-08-11T03:31:07;102045.00;;;18.13;59.72
48053;BME280;33824;51.600;5.718;2022-08-11T03:33:46;102044.56;;;18.09;59.75
48053;BME280;33824;51.600;5.718;2022-08-11T03:39:09;102035.59;;;18.02;59.81
48053;BME280;33824;51.600;5.718;2022-08-11T03:41:47;102038.91;;;18.04;59.85
48053;BME280;33824;51.600;5.718;2022-08-11T04:00:37;102036.59;;;18.01;60.56
48053;BME280;33824;51.600;5.718;2022-08-11T04:06:09;102034.16;;;17.85;60.40
48053;BME280;33824;51.600;5.718;2022-08-11T04:11:44;102030.25;;;17.88;60.50
48053;BME280;33824;51.600;5.718;2022-08-11T04:14:45;102036.53;;;17.73;60.62
48053;BME280;33824;51.600;5.718;2022-08-11T04:20:21;102030.13;;;17.74;61.24
48053;BME280;33824;51.600;5.718;2022-08-11T04:23:13;102025.13;;;17.71;61.39
48053;BME280;33824;51.600;5.718;2022-08-11T04:25:55;102024.78;;;17.81;60.77
48053;BME280;33824;51.600;5.718;2022-08-11T04:28:54;102033.38;;;17.70;61.66
48053;BME280;33824;51.600;5.718;2022-08-11T04:31:33;102030.97;;;17.75;61.48
48053;BME280;33824;51.600;5.718;2022-08-11T04:34:48;102035.69;;;17.73;61.04
48053;BME280;33824;51.600;5.718;2022-08-11T04:37:31;102028.13;;;17.83;61.62
48053;BME280;33824;51.600;5.718;2022-08-11T04:43:20;102031.22;;;17.80;61.63
48053;BME280;33824;51.600;5.718;2022-08-11T04:49:04;102039.03;;;17.96;61.60
48053;BME280;33824;51.600;5.718;2022-08-11T04:52:14;102040.53;;;17.99;61.49
48053;BME280;33824;51.600;5.718;2022-08-11T05:07:26;102032.53;;;18.33;61.15
48053;BME280;33824;51.600;5.718;2022-08-11T05:10:15;102037.88;;;18.54;61.07
48053;BME280;33824;51.600;5.718;2022-08-11T05:13:02;102040.91;;;18.73;60.74
48053;BME280;33824;51.600;5.718;2022-08-11T05:15:52;102036.88;;;18.90;60.50
48053;BME280;33824;51.600;5.718;2022-08-11T05:18:46;102027.16;;;19.02;60.30
48053;BME280;33824;51.600;5.718;2022-08-11T05:21:32;102038.88;;;19.22;60.09
48053;BME280;33824;51.600;5.718;2022-08-11T05:24:27;102031.84;;;19.28;59.84
48053;BME280;33824;51.600;5.718;2022-08-11T05:27:13;102036.09;;;19.50;59.77
48053;BME280;33824;51.600;5.718;2022-08-11T05:30:05;102030.28;;;19.59;59.58
48053;BME280;33824;51.600;5.718;2022-08-11T05:33:19;102039.69;;;19.70;59.34
48053;BME280;33824;51.600;5.718;2022-08-11T05:36:43;102037.22;;;19.82;58.96
48053;BME280;33824;51.600;5.718;2022-08-11T05:39:15;102036.19;;;20.02;58.70
48053;BME280;33824;51.600;5.718;2022-08-11T05:42:04;102045.97;;;20.17;58.42
48053;BME280;33824;51.600;5.718;2022-08-11T05:44:49;102040.81;;;20.28;57.82
48053;BME280;33824;51.600;5.718;2022-08-11T05:47:37;102040.16;;;20.39;57.67
48053;BME280;33824;51.600;5.718;2022-08-11T05:50:22;102047.88;;;20.49;57.80
48053;BME280;33824;51.600;5.718;2022-08-11T05:53:09;102040.97;;;20.59;57.11
48053;BME280;33824;51.600;5.718;2022-08-11T05:55:56;102049.09;;;20.73;57.06
48053;BME280;33824;51.600;5.718;2022-08-11T05:58:45;102033.03;;;20.78;56.85
48053;BME280;33824;51.600;5.718;2022-08-11T06:01:22;102037.78;;;20.89;57.03
48053;BME280;33824;51.600;5.718;2022-08-11T06:03:50;102031.25;;;21.10;56.51
48053;BME280;33824;51.600;5.718;2022-08-11T06:06:38;102032.94;;;21.17;55.93
48053;BME280;33824;51.600;5.718;2022-08-11T06:09:06;102038.91;;;21.32;55.77
48053;BME280;33824;51.600;5.718;2022-08-11T06:11:40;102041.59;;;21.39;55.69
48053;BME280;33824;51.600;5.718;2022-08-11T06:14:07;102039.41;;;21.61;54.98
48053;BME280;33824;51.600;5.718;2022-08-11T06:16:35;102041.81;;;21.75;54.83
48053;BME280;33824;51.600;5.718;2022-08-11T06:19:02;102044.91;;;21.79;54.32
48053;BME280;33824;51.600;5.718;2022-08-11T06:21:32;102041.94;;;21.87;54.10
48053;BME280;33824;51.600;5.718;2022-08-11T06:23:58;102043.53;;;22.01;53.98
48053;BME280;33824;51.600;5.718;2022-08-11T06:26:24;102037.44;;;22.06;53.75
48053;BME280;33824;51.600;5.718;2022-08-11T06:28:50;102042.75;;;22.19;53.53
48053;BME280;33824;51.600;5.718;2022-08-11T06:31:18;102040.97;;;22.31;53.17
48053;BME280;33824;51.600;5.718;2022-08-11T06:33:55;102042.38;;;22.40;52.76
48053;BME280;33824;51.600;5.718;2022-08-11T06:36:49;102033.31;;;22.46;52.64
48053;BME280;33824;51.600;5.718;2022-08-11T06:39:27;102035.28;;;22.57;53.10
48053;BME280;33824;51.600;5.718;2022-08-11T06:42:05;102033.06;;;22.72;52.97
48053;BME280;33824;51.600;5.718;2022-08-11T06:44:43;102041.63;;;22.76;52.25
48053;BME280;33824;51.600;5.718;2022-08-11T06:47:15;102051.44;;;22.95;52.11
48053;BME280;33824;51.600;5.718;2022-08-11T06:49:44;102044.41;;;23.06;51.84
48053;BME280;33824;51.600;5.718;2022-08-11T06:52:36;102044.81;;;23.09;51.54
48053;BME280;33824;51.600;5.718;2022-08-11T06:55:10;102040.25;;;23.21;51.48
48053;BME280;33824;51.600;5.718;2022-08-11T06:57:38;102033.59;;;23.35;50.89
48053;BME280;33824;51.600;5.718;2022-08-11T07:00:27;102044.31;;;23.49;50.77
48053;BME280;33824;51.600;5.718;2022-08-11T07:03:11;102035.34;;;23.60;50.66
48053;BME280;33824;51.600;5.718;2022-08-11T07:05:44;102041.91;;;23.70;49.84
48053;BME280;33824;51.600;5.718;2022-08-11T07:14:22;102038.16;;;24.24;49.62
48053;BME280;33824;51.600;5.718;2022-08-11T07:17:21;102043.72;;;24.29;49.13
48053;BME280;33824;51.600;5.718;2022-08-11T07:19:54;102039.81;;;24.37;48.29
48053;BME280;33824;51.600;5.718;2022-08-11T07:22:41;102032.13;;;24.57;48.54
48053;BME280;33824;51.600;5.718;2022-08-11T07:25:28;102041.09;;;24.81;48.93
48053;BME280;33824;51.600;5.718;2022-08-11T07:28:17;102030.78;;;24.95;47.77
48053;BME280;33824;51.600;5.718;2022-08-11T07:31:07;102026.88;;;25.02;46.96
48053;BME280;33824;51.600;5.718;2022-08-11T07:33:48;102029.22;;;25.10;46.60
48053;BME280;33824;51.600;5.718;2022-08-11T07:36:16;102029.50;;;25.37;45.98
48053;BME280;33824;51.600;5.718;2022-08-11T07:38:48;102033.56;;;25.51;45.29
48053;BME280;33824;51.600;5.718;2022-08-11T07:41:17;102037.34;;;25.62;43.90
48053;BME280;33824;51.600;5.718;2022-08-11T07:43:45;102035.50;;;25.79;43.66
48053;BME280;33824;51.600;5.718;2022-08-11T07:46:14;102026.00;;;25.98;43.82
48053;BME280;33824;51.600;5.718;2022-08-11T07:49:01;102032.19;;;26.10;43.12
48053;BME280;33824;51.600;5.718;2022-08-11T07:51:46;102028.19;;;26.18;43.05
48053;BME280;33824;51.600;5.718;2022-08-11T07:54:31;102035.03;;;26.32;41.92
48053;BME280;33824;51.600;5.718;2022-08-11T07:56:57;102032.69;;;26.41;41.11
48053;BME280;33824;51.600;5.718;2022-08-11T07:59:24;102032.88;;;26.51;40.78
48053;BME280;33824;51.600;5.718;2022-08-11T08:02:11;102027.78;;;26.59;41.02
48053;BME280;33824;51.600;5.718;2022-08-11T08:04:57;102025.75;;;26.71;40.69
48053;BME280;33824;51.600;5.718;2022-08-11T08:07:42;102021.19;;;26.77;40.23
48053;BME280;33824;51.600;5.718;2022-08-11T08:10:30;102023.00;;;26.88;40.36
48053;BME280;33824;51.600;5.718;2022-08-11T08:13:14;102023.44;;;27.02;40.39
48053;BME280;33824;51.600;5.718;2022-08-11T08:15:58;102029.38;;;27.15;40.23
48053;BME280;33824;51.600;5.718;2022-08-11T08:18:43;102025.91;;;27.25;39.57
48053;BME280;33824;51.600;5.718;2022-08-11T08:21:09;102025.00;;;27.41;39.55
48053;BME280;33824;51.600;5.718;2022-08-11T08:23:41;102022.59;;;27.45;39.50
48053;BME280;33824;51.600;5.718;2022-08-11T08:26:10;102025.44;;;27.55;39.13
48053;BME280;33824;51.600;5.718;2022-08-11T08:28:57;102023.53;;;27.55;38.72
48053;BME280;33824;51.600;5.718;2022-08-11T08:31:46;102030.84;;;27.72;38.04
48053;BME280;33824;51.600;5.718;2022-08-11T08:34:16;102030.38;;;27.80;38.80
48053;BME280;33824;51.600;5.718;2022-08-11T08:36:47;102027.16;;;27.88;38.21
48053;BME280;33824;51.600;5.718;2022-08-11T08:39:13;102020.66;;;27.99;38.02
48053;BME280;33824;51.600;5.718;2022-08-11T08:41:42;102024.13;;;28.16;37.60
48053;BME280;33824;51.600;5.718;2022-08-11T08:44:09;102018.63;;;28.16;37.57
48053;BME280;33824;51.600;5.718;2022-08-11T08:46:43;102020.88;;;28.24;37.35
48053;BME280;33824;51.600;5.718;2022-08-11T08:49:20;102031.91;;;28.29;37.12
48053;BME280;33824;51.600;5.718;2022-08-11T08:51:51;102030.06;;;28.40;37.36
48053;BME280;33824;51.600;5.718;2022-08-11T08:54:22;102023.78;;;28.44;36.84
48053;BME280;33824;51.600;5.718;2022-08-11T08:56:54;102018.34;;;28.54;36.45
48053;BME280;33824;51.600;5.718;2022-08-11T08:59:21;102033.59;;;28.72;36.26
48053;BME280;33824;51.600;5.718;2022-08-11T09:01:57;102020.69;;;28.78;35.83
48053;BME280;33824;51.600;5.718;2022-08-11T09:04:25;102011.09;;;28.80;36.27
48053;BME280;33824;51.600;5.718;2022-08-11T09:06:52;102016.09;;;28.88;35.61
48053;BME280;33824;51.600;5.718;2022-08-11T09:09:19;102019.16;;;28.97;35.04
48053;BME280;33824;51.600;5.718;2022-08-11T09:11:47;102023.00;;;29.01;35.16
48053;BME280;33824;51.600;5.718;2022-08-11T09:14:22;102014.75;;;28.91;35.22
48053;BME280;33824;51.600;5.718;2022-08-11T09:16:49;102008.19;;;29.02;35.21
48053;BME280;33824;51.600;5.718;2022-08-11T09:19:18;102012.84;;;29.01;34.69
48053;BME280;33824;51.600;5.718;2022-08-11T09:21:49;102015.91;;;29.15;34.90
48053;BME280;33824;51.600;5.718;2022-08-11T09:24:35;102007.50;;;29.32;34.49
48053;BME280;33824;51.600;5.718;2022-08-11T09:27:20;102006.41;;;29.33;33.28
48053;BME280;33824;51.600;5.718;2022-08-11T09:29:47;102014.66;;;29.53;33.90
48053;BME280;33824;51.600;5.718;2022-08-11T09:32:13;102007.56;;;29.67;33.27
48053;BME280;33824;51.600;5.718;2022-08-11T09:34:39;102006.16;;;29.80;33.39
48053;BME280;33824;51.600;5.718;2022-08-11T09:37:05;102005.66;;;29.83;33.83
48053;BME280;33824;51.600;5.718;2022-08-11T09:39:51;102005.94;;;30.07;33.90
48053;BME280;33824;51.600;5.718;2022-08-11T09:42:35;102000.94;;;30.29;33.35
48053;BME280;33824;51.600;5.718;2022-08-11T09:45:20;101993.53;;;30.44;33.32
48053;BME280;33824;51.600;5.718;2022-08-11T09:47:46;101995.75;;;30.42;32.44
48053;BME280;33824;51.600;5.718;2022-08-11T09:50:14;101992.41;;;30.51;32.95
48053;BME280;33824;51.600;5.718;2022-08-11T09:52:41;101987.41;;;30.68;32.77
48053;BME280;33824;51.600;5.718;2022-08-11T09:55:13;101983.28;;;30.60;31.80
48053;BME280;33824;51.600;5.718;2022-08-11T09:57:40;101975.59;;;30.62;31.52
48053;BME280;33824;51.600;5.718;2022-08-11T10:00:36;101984.16;;;30.51;30.86
48053;BME280;33824;51.600;5.718;2022-08-11T10:03:24;101981.16;;;30.47;31.51
48053;BME280;33824;51.600;5.718;2022-08-11T10:05:55;101974.72;;;30.77;32.26
48053;BME280;33824;51.600;5.718;2022-08-11T10:08:41;101979.38;;;30.81;31.18
48053;BME280;33824;51.600;5.718;2022-08-11T10:11:11;101966.75;;;30.70;31.19
48053;BME280;33824;51.600;5.718;2022-08-11T10:13:41;101974.97;;;30.80;30.46
48053;BME280;33824;51.600;5.718;2022-08-11T10:16:28;101973.25;;;31.00;30.54
48053;BME280;33824;51.600;5.718;2022-08-11T10:18:55;101971.84;;;30.97;29.93
48053;BME280;33824;51.600;5.718;2022-08-11T10:24:35;101967.06;;;31.23;29.76
48053;BME280;33824;51.600;5.718;2022-08-11T10:27:20;101962.63;;;31.27;29.35
48053;BME280;33824;51.600;5.718;2022-08-11T10:29:46;101955.28;;;31.51;29.15
48053;BME280;33824;51.600;5.718;2022-08-11T10:32:31;101964.16;;;31.43;28.73
48053;BME280;33824;51.600;5.718;2022-08-11T10:35:17;101961.44;;;31.38;28.86
48053;BME280;33824;51.600;5.718;2022-08-11T10:37:45;101964.47;;;31.36;28.65
48053;BME280;33824;51.600;5.718;2022-08-11T10:40:17;101964.47;;;31.41;28.17
48053;BME280;33824;51.600;5.718;2022-08-11T10:42:53;101956.69;;;31.49;28.35
48053;BME280;33824;51.600;5.718;2022-08-11T10:45:35;101948.09;;;31.55;28.58
48053;BME280;33824;51.600;5.718;2022-08-11T10:48:21;101950.06;;;31.50;29.00
48053;BME280;33824;51.600;5.718;2022-08-11T10:50:49;101949.53;;;31.53;28.22
48053;BME280;33824;51.600;5.718;2022-08-11T10:53:35;101945.81;;;31.67;27.45
48053;BME280;33824;51.600;5.718;2022-08-11T10:56:21;101953.31;;;31.91;27.12
48053;BME280;33824;51.600;5.718;2022-08-11T10:59:07;101948.75;;;32.05;27.50
48053;BME280;33824;51.600;5.718;2022-08-11T11:01:40;101944.22;;;31.90;26.51
48053;BME280;33824;51.600;5.718;2022-08-11T11:04:11;101945.44;;;31.79;26.96
48053;BME280;33824;51.600;5.718;2022-08-11T11:09:15;101935.81;;;32.05;26.08
48053;BME280;33824;51.600;5.718;2022-08-11T11:11:49;101926.88;;;32.18;26.09
48053;BME280;33824;51.600;5.718;2022-08-11T11:14:35;101931.72;;;32.26;26.04
48053;BME280;33824;51.600;5.718;2022-08-11T11:17:26;101923.00;;;32.43;25.87
48053;BME280;33824;51.600;5.718;2022-08-11T11:20:15;101926.44;;;32.54;25.76
48053;BME280;33824;51.600;5.718;2022-08-11T11:22:42;101923.75;;;32.49;26.06
48053;BME280;33824;51.600;5.718;2022-08-11T11:28:23;101923.06;;;32.14;25.53
48053;BME280;33824;51.600;5.718;2022-08-11T11:31:10;101917.22;;;32.16;25.27
48053;BME280;33824;51.600;5.718;2022-08-11T11:36:30;101907.91;;;32.35;25.42
48053;BME280;33824;51.600;5.718;2022-08-11T11:39:00;101907.75;;;32.46;24.16
48053;BME280;33824;51.600;5.718;2022-08-11T11:41:26;101913.13;;;32.61;23.86
48053;BME280;33824;51.600;5.718;2022-08-11T11:43:56;101908.66;;;32.83;24.13
48053;BME280;33824;51.600;5.718;2022-08-11T11:46:26;101909.06;;;32.96;24.12
48053;BME280;33824;51.600;5.718;2022-08-11T11:48:53;101905.72;;;32.99;24.02
48053;BME280;33824;51.600;5.718;2022-08-11T11:51:21;101903.56;;;33.14;24.32
48053;BME280;33824;51.600;5.718;2022-08-11T11:53:47;101900.25;;;33.31;24.00
48053;BME280;33824;51.600;5.718;2022-08-11T11:56:14;101899.63;;;33.53;24.40
48053;BME280;33824;51.600;5.718;2022-08-11T11:58:40;101890.88;;;33.46;24.26
48053;BME280;33824;51.600;5.718;2022-08-11T12:01:24;101892.19;;;33.35;24.38
48053;BME280;33824;51.600;5.718;2022-08-11T12:03:52;101891.47;;;33.29;24.39
48053;BME280;33824;51.600;5.718;2022-08-11T12:06:20;101890.41;;;33.06;24.33
48053;BME280;33824;51.600;5.718;2022-08-11T12:08:49;101883.00;;;33.02;23.62
48053;BME280;33824;51.600;5.718;2022-08-11T12:11:18;101876.56;;;32.88;24.31
48053;BME280;33824;51.600;5.718;2022-08-11T12:14:05;101886.88;;;33.01;23.95
48053;BME280;33824;51.600;5.718;2022-08-11T12:16:33;101867.56;;;33.19;23.64
48053;BME280;33824;51.600;5.718;2022-08-11T12:19:00;101877.03;;;33.32;23.07
48053;BME280;33824;51.600;5.718;2022-08-11T12:21:27;101878.22;;;33.26;22.08
48053;BME280;33824;51.600;5.718;2022-08-11T12:23:55;101869.84;;;33.31;22.32
48053;BME280;33824;51.600;5.718;2022-08-11T12:26:41;101865.31;;;33.21;22.35
48053;BME280;33824;51.600;5.718;2022-08-11T12:29:21;101865.75;;;33.28;22.34
48053;BME280;33824;51.600;5.718;2022-08-11T12:31:52;101859.91;;;33.62;23.23
48053;BME280;33824;51.600;5.718;2022-08-11T12:34:19;101865.06;;;33.69;21.74
48053;BME280;33824;51.600;5.718;2022-08-11T12:36:49;101852.34;;;33.68;22.42
48053;BME280;33824;51.600;5.718;2022-08-11T12:39:20;101849.31;;;33.83;21.78
48053;BME280;33824;51.600;5.718;2022-08-11T12:42:08;101848.69;;;33.72;22.22
48053;BME280;33824;51.600;5.718;2022-08-11T12:44:54;101848.69;;;33.72;22.16
48053;BME280;33824;51.600;5.718;2022-08-11T12:47:42;101837.78;;;33.62;22.05
48053;BME280;33824;51.600;5.718;2022-08-11T12:50:31;101843.94;;;33.59;20.46
48053;BME280;33824;51.600;5.718;2022-08-11T12:53:15;101838.84;;;33.66;21.30
48053;BME280;33824;51.600;5.718;2022-08-11T12:55:41;101834.44;;;33.79;21.41
48053;BME280;33824;51.600;5.718;2022-08-11T12:58:26;101832.91;;;33.87;20.98
48053;BME280;33824;51.600;5.718;2022-08-11T13:00:52;101827.91;;;33.89;21.24
48053;BME280;33824;51.600;5.718;2022-08-11T13:03:37;101827.09;;;33.88;21.26
48053;BME280;33824;51.600;5.718;2022-08-11T13:06:23;101826.16;;;33.93;20.92
48053;BME280;33824;51.600;5.718;2022-08-11T13:08:48;101827.00;;;33.93;21.43
48053;BME280;33824;51.600;5.718;2022-08-11T13:11:15;101815.41;;;34.05;21.72
48053;BME280;33824;51.600;5.718;2022-08-11T13:14:01;101822.69;;;34.01;21.60
48053;BME280;33824;51.600;5.718;2022-08-11T13:16:30;101812.44;;;34.01;21.53
48053;BME280;33824;51.600;5.718;2022-08-11T13:18:58;101806.91;;;34.15;21.58
48053;BME280;33824;51.600;5.718;2022-08-11T13:21:26;101803.31;;;34.14;21.50
48053;BME280;33824;51.600;5.718;2022-08-11T13:23:54;101796.44;;;34.26;21.84
48053;BME280;33824;51.600;5.718;2022-08-11T13:26:23;101799.31;;;34.20;21.97
48053;BME280;33824;51.600;5.718;2022-08-11T13:28:50;101793.25;;;34.32;21.52
48053;BME280;33824;51.600;5.718;2022-08-11T13:31:16;101794.00;;;34.24;21.84
48053;BME280;33824;51.600;5.718;2022-08-11T13:33:45;101797.91;;;34.23;22.17
48053;BME280;33824;51.600;5.718;2022-08-11T13:36:17;101786.44;;;34.16;21.24
48053;BME280;33824;51.600;5.718;2022-08-11T13:38:43;101787.25;;;34.16;21.19
48053;BME280;33824;51.600;5.718;2022-08-11T13:41:09;101783.53;;;34.21;21.49
48053;BME280;33824;51.600;5.718;2022-08-11T13:43:55;101786.91;;;34.32;21.49
48053;BME280;33824;51.600;5.718;2022-08-11T13:46:21;101778.25;;;34.47;20.47
48053;BME280;33824;51.600;5.718;2022-08-11T13:48:51;101779.25;;;34.64;20.60
48053;BME280;33824;51.600;5.718;2022-08-11T13:51:18;101775.56;;;34.69;20.79
48053;BME280;33824;51.600;5.718;2022-08-11T13:54:00;101774.34;;;34.48;19.77
48053;BME280;33824;51.600;5.718;2022-08-11T13:56:27;101782.34;;;34.49;20.25
48053;BME280;33824;51.600;5.718;2022-08-11T13:58:54;101772.41;;;34.48;19.82
48053;BME280;33824;51.600;5.718;2022-08-11T14:01:23;101770.72;;;34.61;20.41
48053;BME280;33824;51.600;5.718;2022-08-11T14:03:51;101768.66;;;34.66;20.32
48053;BME280;33824;51.600;5.718;2022-08-11T14:06:18;101775.94;;;34.76;20.48
48053;BME280;33824;51.600;5.718;2022-08-11T14:08:45;101764.78;;;34.90;19.59
48053;BME280;33824;51.600;5.718;2022-08-11T14:11:12;101769.25;;;34.99;20.09
48053;BME280;33824;51.600;5.718;2022-08-11T14:13:58;101758.16;;;34.99;19.81
48053;BME280;33824;51.600;5.718;2022-08-11T14:16:28;101753.75;;;34.98;19.35
48053;BME280;33824;51.600;5.718;2022-08-11T14:18:59;101752.38;;;34.87;18.57
48053;BME280;33824;51.600;5.718;2022-08-11T14:21:27;101754.09;;;34.61;19.48
48053;BME280;33824;51.600;5.718;2022-08-11T14:24:15;101754.56;;;34.41;19.92
48053;BME280;33824;51.600;5.718;2022-08-11T14:26:42;101759.34;;;34.27;20.68
48053;BME280;33824;51.600;5.718;2022-08-11T14:29:19;101749.28;;;34.31;19.68
48053;BME280;33824;51.600;5.718;2022-08-11T14:31:55;101747.47;;;34.48;20.16
48053;BME280;33824;51.600;5.718;2022-08-11T14:34:26;101749.28;;;34.66;19.77
48053;BME280;33824;51.600;5.718;2022-08-11T14:37:01;101749.59;;;34.65;20.16
48053;BME280;33824;51.600;5.718;2022-08-11T14:39:30;101743.88;;;34.84;18.96
48053;BME280;33824;51.600;5.718;2022-08-11T14:42:04;101742.19;;;34.96;19.14
48053;BME280;33824;51.600;5.718;2022-08-11T14:44:55;101738.44;;;35.01;19.46
48053;BME280;33824;51.600;5.718;2022-08-11T14:47:43;101741.09;;;35.06;19.61
48053;BME280;33824;51.600;5.718;2022-08-11T14:50:15;101747.84;;;34.91;18.88
48053;BME280;33824;51.600;5.718;2022-08-11T14:52:48;101741.16;;;34.70;19.04
48053;BME280;33824;51.600;5.718;2022-08-11T14:55:14;101742.50;;;34.73;19.38
48053;BME280;33824;51.600;5.718;2022-08-11T14:58:00;101738.34;;;34.84;19.57
48053;BME280;33824;51.600;5.718;2022-08-11T15:00:27;101741.84;;;34.98;18.98
48053;BME280;33824;51.600;5.718;2022-08-11T15:02:53;101731.72;;;35.16;18.84
48053;BME280;33824;51.600;5.718;2022-08-11T15:05:45;101723.16;;;35.12;19.17
48053;BME280;33824;51.600;5.718;2022-08-11T15:08:13;101729.06;;;35.10;19.96
48053;BME280;33824;51.600;5.718;2022-08-11T15:10:40;101722.06;;;35.13;19.81
48053;BME280;33824;51.600;5.718;2022-08-11T15:13:05;101715.69;;;35.12;19.82
48053;BME280;33824;51.600;5.718;2022-08-11T15:15:32;101714.38;;;35.10;20.04
48053;BME280;33824;51.600;5.718;2022-08-11T15:18:19;101707.53;;;34.85;20.36
48053;BME280;33824;51.600;5.718;2022-08-11T15:20:45;101710.50;;;34.89;21.00
48053;BME280;33824;51.600;5.718;2022-08-11T15:23:30;101713.59;;;34.87;21.26
48053;BME280;33824;51.600;5.718;2022-08-11T15:26:17;101710.91;;;34.74;20.45
48053;BME280;33824;51.600;5.718;2022-08-11T15:28:48;101707.84;;;34.61;20.01
48053;BME280;33824;51.600;5.718;2022-08-11T15:31:35;101697.84;;;34.74;19.84
48053;BME280;33824;51.600;5.718;2022-08-11T15:34:23;101689.28;;;34.84;20.63